Time;durP1;ratioP1;P1;durP2;ratioP2;P2;SDS_P1;SDS_P2;PMS_P1;PMS_P2;Temp;Humidity;BMP_temperature;BMP_pressure;BME280_temperature;BME280_humidity;BME280_pressure;Samples;Min_cycle;Max_cycle;Signal;HPM_P1;HPM_P2
2022/07/14 00:01:47;;;;;;;2.17;1.00;;;19.70;92.50;;;;;;5112479;28;20186;-75
2022/07/14 00:04:13;;;;;;;7.53;1.03;;;19.70;92.50;;;;;;5113049;28;20187;-75
2022/07/14 00:06:39;;;;;;;2.20;1.20;;;19.70;92.70;;;;;;5113412;28;20574;-75
2022/07/14 00:09:04;;;;;;;2.40;0.93;;;19.70;92.70;;;;;;5112647;28;20689;-75
2022/07/14 00:11:30;;;;;;;1.90;0.90;;;19.70;92.70;;;;;;5109227;28;20186;-75
2022/07/14 00:13:59;;;;;;;1.83;0.90;;;19.60;92.90;;;;;;5100683;28;20173;-75
2022/07/14 00:16:26;;;;;;;10.10;1.03;;;19.60;92.70;;;;;;5110187;28;20721;-74
2022/07/14 00:18:52;;;;;;;2.17;0.90;;;19.50;92.90;;;;;;5112635;27;20445;-75
2022/07/14 00:21:17;;;;;;;2.13;0.80;;;19.50;92.60;;;;;;5112542;28;20437;-75
2022/07/14 00:23:45;;;;;;;1.80;0.80;;;19.50;92.90;;;;;;5113114;28;20184;-75
2022/07/14 00:26:11;;;;;;;2.00;1.00;;;19.50;93.10;;;;;;5112889;28;20265;-75
2022/07/14 00:28:37;;;;;;;2.67;1.10;;;19.50;93.30;;;;;;5112742;28;20436;-75
2022/07/14 00:31:08;;;;;;;2.33;0.97;;;19.40;93.30;;;;;;5111164;28;20853;-75
2022/07/14 00:33:34;;;;;;;1.57;0.73;;;19.40;93.00;;;;;;5112196;28;20184;-75
2022/07/14 00:36:01;;;;;;;1.83;0.80;;;19.30;93.30;;;;;;5112805;28;20469;-75
2022/07/14 00:38:27;;;;;;;5.53;1.07;;;19.30;93.30;;;;;;5112765;28;20480;-75
2022/07/14 00:40:52;;;;;;;3.63;0.90;;;19.30;93.40;;;;;;5112905;28;20915;-75
2022/07/14 00:43:18;;;;;;;1.70;0.73;;;19.30;93.20;;;;;;5112528;28;20179;-75
2022/07/14 00:45:44;;;;;;;2.10;1.10;;;19.20;93.30;;;;;;5112334;28;21075;-75
2022/07/14 00:48:12;;;;;;;2.17;0.77;;;19.20;93.30;;;;;;5112474;28;20424;-75
2022/07/14 00:50:41;;;;;;;2.67;1.10;;;19.10;93.30;;;;;;5112650;28;20569;-75
2022/07/14 00:53:08;;;;;;;2.97;1.20;;;19.00;93.10;;;;;;5112294;28;20417;-75
2022/07/14 00:55:40;;;;;;;1.90;0.80;;;19.10;92.20;;;;;;5112377;28;20498;-75
2022/07/14 00:58:05;;;;;;;4.07;1.13;;;19.20;92.30;;;;;;5098928;28;20879;-75
2022/07/14 01:00:31;;;;;;;2.03;0.77;;;19.10;92.00;;;;;;5111615;28;20426;-75
2022/07/14 01:02:57;;;;;;;3.70;1.03;;;19.10;91.80;;;;;;5111560;28;20175;-75
2022/07/14 01:05:23;;;;;;;2.90;0.87;;;19.10;92.30;;;;;;5112451;28;20183;-75
2022/07/14 01:07:49;;;;;;;1.70;0.83;;;19.10;92.30;;;;;;5112445;28;20198;-75
2022/07/14 01:10:15;;;;;;;1.93;0.93;;;19.10;91.80;;;;;;5112163;28;21185;-75
2022/07/14 01:12:46;;;;;;;1.80;0.80;;;19.10;92.30;;;;;;5109214;28;20208;-75
2022/07/14 01:15:13;;;;;;;1.73;0.70;;;19.00;91.50;;;;;;5107314;28;21166;-75
2022/07/14 01:17:39;;;;;;;1.40;0.60;;;19.00;91.00;;;;;;5111253;28;20926;-75
2022/07/14 01:20:05;;;;;;;4.10;1.30;;;19.00;91.10;;;;;;5109465;28;20421;-75
2022/07/14 01:22:31;;;;;;;6.73;1.10;;;19.00;90.50;;;;;;5106891;28;20182;-75
2022/07/14 01:24:57;;;;;;;2.50;1.20;;;19.00;90.60;;;;;;5103766;28;20421;-75
2022/07/14 01:27:23;;;;;;;1.83;0.97;;;18.90;90.30;;;;;;5115634;28;20199;-75
2022/07/14 01:29:48;;;;;;;1.50;0.70;;;18.90;89.80;;;;;;5115752;28;20180;-75
2022/07/14 01:32:14;;;;;;;6.60;1.37;;;18.90;88.60;;;;;;5114825;28;20175;-74
2022/07/14 01:34:39;;;;;;;1.60;0.60;;;19.00;88.30;;;;;;5115956;28;20183;-75
2022/07/14 01:37:05;;;;;;;1.70;0.70;;;19.10;85.70;;;;;;5115950;28;20599;-75
2022/07/14 01:39:31;;;;;;;23.10;1.10;;;19.10;84.30;;;;;;5111165;28;20630;-75
2022/07/14 01:41:56;;;;;;;1.50;0.80;;;19.20;84.70;;;;;;5106702;28;20259;-75
2022/07/14 01:44:22;;;;;;;2.10;0.80;;;19.30;85.50;;;;;;5103296;28;20184;-74
2022/07/14 01:46:47;;;;;;;1.70;0.70;;;19.30;85.30;;;;;;5106776;28;20230;-75
2022/07/14 01:49:13;;;;;;;1.60;0.60;;;19.30;84.10;;;;;;5105129;28;20256;-75
2022/07/14 01:51:39;;;;;;;2.63;0.90;;;19.30;86.30;;;;;;5109297;28;20530;-74
2022/07/14 01:54:04;;;;;;;2.03;0.97;;;19.20;86.80;;;;;;5105502;28;20698;-75
2022/07/14 01:56:31;;;;;;;6.90;0.77;;;19.10;88.00;;;;;;5115848;28;20214;-75
2022/07/14 01:58:57;;;;;;;9.60;0.90;;;19.00;87.50;;;;;;5114972;28;20218;-75
2022/07/14 02:01:41;;;;;;;2.33;0.70;;;18.80;88.50;;;;;;5101950;28;20435;-75
2022/07/14 02:04:10;;;;;;;1.90;1.00;;;18.70;89.30;;;;;;5115186;28;20409;-75
2022/07/14 02:06:37;;;;;;;1.40;0.70;;;18.50;90.00;;;;;;5115604;28;20421;-75
2022/07/14 02:09:03;;;;;;;1.70;0.70;;;18.40;90.10;;;;;;5101595;28;20912;-75
2022/07/14 02:14:13;;;;;;;2.23;0.87;;;18.10;90.30;;;;;;5108373;28;20448;-75
2022/07/14 02:16:39;;;;;;;1.47;0.73;;;18.00;90.40;;;;;;5098605;28;20461;-75
2022/07/14 02:19:05;;;;;;;3.20;0.80;;;17.80;90.60;;;;;;5106798;28;20236;-75
2022/07/14 02:21:31;;;;;;;1.83;0.87;;;17.70;90.40;;;;;;5115049;28;20633;-74
2022/07/14 02:23:56;;;;;;;2.10;0.90;;;17.60;90.70;;;;;;5115129;28;20445;-75
2022/07/14 02:26:23;;;;;;;1.93;0.83;;;17.60;90.80;;;;;;5111922;28;20174;-75
2022/07/14 02:28:49;;;;;;;2.00;0.83;;;17.60;91.00;;;;;;5115102;28;20234;-74
2022/07/14 02:31:15;;;;;;;3.37;1.20;;;17.60;90.60;;;;;;5114464;28;20972;-75
2022/07/14 02:33:40;;;;;;;1.90;1.03;;;17.60;90.60;;;;;;5115081;28;20505;-75
2022/07/14 02:36:09;;;;;;;1.70;0.80;;;17.60;91.00;;;;;;5115220;28;20539;-75
2022/07/14 02:38:36;;;;;;;1.90;0.80;;;17.60;91.00;;;;;;5115053;28;20188;-75
2022/07/14 02:41:02;;;;;;;1.50;0.60;;;17.50;91.10;;;;;;5114742;28;20906;-75
2022/07/14 02:43:28;;;;;;;1.90;0.80;;;17.50;91.20;;;;;;5114864;28;20417;-74
2022/07/14 02:45:54;;;;;;;1.80;0.70;;;17.50;91.10;;;;;;5108030;28;20259;-75
2022/07/14 02:48:20;;;;;;;1.90;0.97;;;17.40;91.30;;;;;;5114850;28;20524;-75
2022/07/14 02:50:45;;;;;;;2.10;0.80;;;17.30;91.20;;;;;;5114634;28;20188;-75
2022/07/14 02:53:11;;;;;;;4.90;0.90;;;17.30;91.20;;;;;;5114419;28;20660;-75
2022/07/14 02:55:37;;;;;;;1.60;0.70;;;17.20;91.00;;;;;;5114692;27;20206;-75
2022/07/14 02:58:06;;;;;;;2.10;0.70;;;17.20;90.80;;;;;;5114778;28;20222;-74
2022/07/14 03:00:32;;;;;;;2.13;0.90;;;17.10;90.80;;;;;;5114609;28;20264;-75
2022/07/14 03:03:00;;;;;;;1.87;0.90;;;17.10;91.10;;;;;;5114139;28;20910;-75
2022/07/14 03:05:26;;;;;;;1.60;0.70;;;17.10;91.10;;;;;;5114423;28;20425;-75
2022/07/14 03:07:52;;;;;;;3.53;0.90;;;17.10;91.00;;;;;;5114341;28;20796;-75
2022/07/14 03:10:18;;;;;;;1.80;0.90;;;17.10;90.80;;;;;;5114649;28;20429;-75
2022/07/14 03:12:44;;;;;;;1.80;0.77;;;17.00;91.00;;;;;;5114071;28;20184;-74
2022/07/14 03:15:10;;;;;;;3.93;0.80;;;17.00;90.90;;;;;;5100976;27;20208;-75
2022/07/14 03:17:38;;;;;;;2.70;1.03;;;17.00;90.70;;;;;;5096129;28;20418;-75
2022/07/14 03:20:06;;;;;;;2.30;0.80;;;17.00;90.90;;;;;;5113504;28;20780;-75
2022/07/14 03:22:32;;;;;;;3.73;0.90;;;17.00;91.00;;;;;;5113670;28;20456;-74
2022/07/14 03:24:58;;;;;;;1.70;1.00;;;17.00;91.00;;;;;;5114084;28;20459;-75
2022/07/14 03:27:23;;;;;;;1.70;0.60;;;17.00;91.10;;;;;;5114000;28;20413;-75
2022/07/14 03:29:49;;;;;;;2.03;0.80;;;16.90;91.20;;;;;;5113747;28;20836;-75
2022/07/14 03:32:15;;;;;;;1.50;0.70;;;16.80;91.30;;;;;;5113579;28;20178;-74
2022/07/14 03:34:41;;;;;;;3.20;1.00;;;16.80;91.30;;;;;;5113697;28;20172;-75
2022/07/14 03:37:06;;;;;;;2.57;0.90;;;16.70;91.30;;;;;;5113814;28;20187;-75
2022/07/14 03:39:32;;;;;;;2.50;1.10;;;16.70;91.40;;;;;;5113900;28;20421;-74
2022/07/14 03:41:58;;;;;;;4.40;0.90;;;16.70;91.20;;;;;;5112626;27;20184;-75
2022/07/14 03:44:24;;;;;;;1.80;0.80;;;16.70;91.20;;;;;;5111773;28;20183;-75
2022/07/14 03:46:50;;;;;;;3.10;0.97;;;16.80;91.00;;;;;;5111372;28;20669;-75
2022/07/14 03:49:16;;;;;;;2.33;1.03;;;16.80;91.10;;;;;;5113582;28;20417;-75
2022/07/14 03:51:43;;;;;;;1.63;0.83;;;16.80;91.40;;;;;;5113179;28;20191;-75
2022/07/14 03:54:11;;;;;;;1.60;0.67;;;16.80;91.30;;;;;;5113554;28;20195;-75
2022/07/14 03:56:37;;;;;;;2.03;0.77;;;16.80;91.30;;;;;;5113147;28;20551;-75
2022/07/14 03:59:04;;;;;;;1.87;0.60;;;16.70;91.30;;;;;;5113341;28;20517;-75
2022/07/14 04:01:30;;;;;;;2.03;1.00;;;16.70;91.00;;;;;;5112947;28;20614;-75
2022/07/14 04:03:56;;;;;;;1.70;0.70;;;16.70;90.80;;;;;;5113311;28;20486;-75
2022/07/14 04:06:21;;;;;;;2.33;0.93;;;16.80;90.60;;;;;;5112953;27;20187;-74
2022/07/14 04:08:47;;;;;;;1.80;0.70;;;16.90;91.10;;;;;;5112065;28;20898;-75
2022/07/14 04:11:14;;;;;;;1.60;0.70;;;16.80;90.90;;;;;;5112659;28;20628;-75
2022/07/14 04:13:40;;;;;;;1.40;0.60;;;16.80;90.80;;;;;;5113185;28;20184;-75
2022/07/14 04:16:06;;;;;;;2.70;0.90;;;16.80;91.40;;;;;;5108175;28;21506;-75
2022/07/14 04:18:31;;;;;;;2.77;0.80;;;16.80;91.10;;;;;;5110609;28;20199;-74
2022/07/14 04:20:57;;;;;;;1.60;0.73;;;16.80;91.10;;;;;;5111898;28;20196;-75
2022/07/14 04:23:23;;;;;;;2.30;0.90;;;16.80;91.40;;;;;;5112601;28;20179;-75
2022/07/14 04:25:48;;;;;;;1.93;0.80;;;16.80;91.90;;;;;;5112828;28;20225;-75
2022/07/14 04:28:15;;;;;;;3.13;1.10;;;16.90;91.80;;;;;;5112838;28;20184;-75
2022/07/14 04:30:41;;;;;;;5.23;1.00;;;16.90;92.10;;;;;;5112766;28;20645;-74
2022/07/14 04:33:09;;;;;;;2.03;0.80;;;16.90;92.10;;;;;;5105680;28;20493;-75
2022/07/14 04:35:36;;;;;;;2.27;1.03;;;17.00;92.00;;;;;;5112987;27;21313;-75
2022/07/14 04:38:01;;;;;;;2.20;0.97;;;17.00;92.00;;;;;;5112564;28;20464;-74
2022/07/14 04:40:27;;;;;;;3.50;0.87;;;17.10;91.80;;;;;;5112997;28;20915;-75
2022/07/14 04:42:53;;;;;;;1.93;0.80;;;17.20;91.30;;;;;;5112454;28;20510;-76
2022/07/14 04:45:20;;;;;;;2.07;1.00;;;17.20;90.90;;;;;;5100227;28;20614;-77
2022/07/14 04:47:45;;;;;;;1.67;0.90;;;17.30;91.00;;;;;;5104271;28;20180;-77
2022/07/14 04:52:55;;;;;;;2.23;1.03;;;17.40;89.20;;;;;;5112715;28;20252;-76
2022/07/14 04:55:21;;;;;;;2.30;1.10;;;17.50;90.50;;;;;;5112332;28;20980;-76
2022/07/14 04:57:46;;;;;;;2.33;0.93;;;17.50;91.00;;;;;;5112957;28;20667;-76
2022/07/14 05:00:12;;;;;;;2.17;0.90;;;17.50;91.30;;;;;;5112743;28;20540;-76
2022/07/14 05:02:39;;;;;;;2.30;0.97;;;;;;;;;;5100807;28;20195;-76
2022/07/14 05:05:05;;;;;;;9.60;1.40;;;17.50;91.60;;;;;;5112141;28;20422;-76
2022/07/14 05:07:31;;;;;;;1.57;0.67;;;;;;;;;;5101733;28;20717;-75
2022/07/14 05:09:56;;;;;;;2.23;1.00;;;17.50;91.80;;;;;;5112621;28;21089;-75
2022/07/14 05:12:22;;;;;;;2.20;0.90;;;17.50;92.00;;;;;;5111704;28;20466;-75
2022/07/14 05:14:48;;;;;;;1.50;0.73;;;17.50;92.30;;;;;;5110023;28;20657;-75
2022/07/14 05:17:14;;;;;;;4.33;0.70;;;17.60;92.60;;;;;;5107652;28;20622;-75
2022/07/14 05:19:40;;;;;;;1.37;0.57;;;17.50;92.70;;;;;;5105311;28;20176;-75
2022/07/14 05:22:05;;;;;;;2.17;0.80;;;17.60;92.90;;;;;;5105776;28;20960;-75
2022/07/14 05:24:31;;;;;;;2.50;0.97;;;17.60;92.90;;;;;;5112154;28;20262;-75
2022/07/14 05:26:58;;;;;;;1.50;0.70;;;17.70;92.60;;;;;;5112406;28;20279;-75
2022/07/14 05:29:25;;;;;;;2.07;0.90;;;17.00;90.00;;;;;;5112328;28;20256;-75
2022/07/14 05:31:51;;;;;;;2.17;0.70;;;18.00;90.20;;;;;;5103421;28;20464;-75
2022/07/14 05:34:17;;;;;;;1.57;0.70;;;18.10;91.50;;;;;;5100149;28;20450;-75
2022/07/14 05:36:42;;;;;;;6.70;0.60;;;18.20;89.80;;;;;;5110957;28;20232;-75
2022/07/14 05:39:08;;;;;;;1.70;0.80;;;18.30;90.00;;;;;;5107556;28;20192;-75
2022/07/14 05:41:33;;;;;;;1.57;0.73;;;18.40;90.70;;;;;;5111994;28;20206;-75
2022/07/14 05:43:59;;;;;;;2.43;1.30;;;18.50;91.00;;;;;;5112596;28;20621;-75
2022/07/14 05:46:25;;;;;;;1.77;0.70;;;18.60;91.20;;;;;;5112036;28;20194;-75
2022/07/14 05:48:50;;;;;;;3.20;1.13;;;18.70;90.00;;;;;;5112172;28;20191;-75
2022/07/14 05:51:18;;;;;;;1.50;0.67;;;18.90;89.50;;;;;;5112280;28;20215;-75
2022/07/14 05:53:45;;;;;;;4.13;0.90;;;19.00;89.70;;;;;;5112075;28;20206;-75
2022/07/14 05:56:11;;;;;;;1.50;0.77;;;19.10;90.20;;;;;;5112782;28;20457;-76
2022/07/14 05:58:38;;;;;;;2.07;1.03;;;19.30;88.80;;;;;;5112809;28;20414;-76
2022/07/14 06:01:05;;;;;;;3.40;1.10;;;19.60;87.80;;;;;;5111713;28;20418;-76
2022/07/14 06:03:31;;;;;;;1.80;0.80;;;19.70;89.30;;;;;;5112151;28;20496;-76
2022/07/14 06:06:01;;;;;;;2.30;1.00;;;19.80;88.90;;;;;;5090554;28;20458;-76
2022/07/14 06:08:26;;;;;;;3.40;1.17;;;20.00;89.00;;;;;;5101293;28;20950;-76
2022/07/14 06:10:55;;;;;;;1.70;0.70;;;20.10;86.00;;;;;;5111381;28;20425;-75
2022/07/14 06:13:24;;;;;;;3.23;1.00;;;20.30;82.70;;;;;;5115722;28;20184;-77
2022/07/14 06:15:50;;;;;;;2.43;0.90;;;20.50;81.60;;;;;;5115365;28;20808;-76
2022/07/14 06:18:16;;;;;;;5.87;1.00;;;20.80;81.00;;;;;;5115284;28;20461;-76
2022/07/14 06:20:42;;;;;;;2.60;0.97;;;21.00;82.80;;;;;;5114587;28;20751;-76
2022/07/14 06:23:09;;;;;;;2.37;0.70;;;21.20;79.50;;;;;;5115449;28;20182;-76
2022/07/14 06:25:36;;;;;;;1.70;0.67;;;21.50;78.20;;;;;;5115419;28;20211;-76
2022/07/14 06:28:02;;;;;;;2.03;0.90;;;21.70;78.00;;;;;;5114555;28;20417;-76
2022/07/14 06:30:28;;;;;;;2.07;0.90;;;22.00;76.20;;;;;;5108046;28;20521;-76
2022/07/14 06:32:53;;;;;;;1.90;0.90;;;22.30;76.30;;;;;;5114980;28;20211;-76
2022/07/14 06:35:19;;;;;;;2.70;0.60;;;22.50;74.00;;;;;;5115474;28;20249;-76
2022/07/14 06:37:45;;;;;;;2.83;0.93;;;22.60;73.80;;;;;;5115706;28;20199;-76
2022/07/14 06:40:10;;;;;;;1.47;0.67;;;22.80;73.80;;;;;;5110849;28;20185;-75
2022/07/14 06:42:36;;;;;;;3.03;0.97;;;22.90;74.10;;;;;;5105834;28;20182;-75
2022/07/14 06:45:02;;;;;;;1.60;0.70;;;23.00;72.70;;;;;;5111164;28;20179;-75
2022/07/14 06:47:30;;;;;;;3.13;0.87;;;23.20;72.00;;;;;;5112233;28;20430;-76
2022/07/14 06:49:57;;;;;;;3.37;0.80;;;23.40;72.30;;;;;;5113047;28;20441;-75
2022/07/14 06:52:24;;;;;;;1.60;0.60;;;23.40;72.80;;;;;;5114378;27;21078;-75
2022/07/14 06:54:50;;;;;;;1.90;0.80;;;23.50;74.40;;;;;;5105237;28;20459;-76
2022/07/14 06:57:16;;;;;;;1.77;0.77;;;23.60;74.20;;;;;;5113950;28;20497;-76
2022/07/14 06:59:41;;;;;;;2.57;1.10;;;23.60;75.90;;;;;;5114395;28;20508;-76
2022/07/14 07:02:08;;;;;;;4.80;0.80;;;23.70;76.60;;;;;;5113716;28;20211;-76
2022/07/14 07:04:33;;;;;;;1.90;0.90;;;23.80;75.40;;;;;;5114662;28;20172;-76
2022/07/14 07:06:59;;;;;;;4.37;0.70;;;23.80;74.30;;;;;;5108110;28;20438;-75
2022/07/14 07:09:25;;;;;;;4.23;0.90;;;23.90;75.40;;;;;;5112526;27;20537;-75
2022/07/14 07:11:50;;;;;;;2.23;1.00;;;24.00;74.80;;;;;;5113781;28;20185;-75
2022/07/14 07:14:18;;;;;;;2.50;1.10;;;24.20;69.90;;;;;;5114018;27;20187;-76
2022/07/14 07:16:45;;;;;;;1.70;0.90;;;24.50;69.80;;;;;;5114085;28;20234;-76
2022/07/14 07:19:11;;;;;;;1.47;0.60;;;24.70;71.60;;;;;;5113910;28;20425;-76
2022/07/14 07:21:36;;;;;;;1.50;0.60;;;24.90;68.70;;;;;;5114057;28;20416;-75
2022/07/14 07:24:02;;;;;;;2.67;0.90;;;25.10;68.90;;;;;;5114083;28;20179;-75
2022/07/14 07:26:33;;;;;;;1.77;0.77;;;25.40;68.60;;;;;;5113200;28;20515;-76
2022/07/14 07:28:59;;;;;;;1.83;0.80;;;25.70;70.80;;;;;;5114041;28;20428;-75
2022/07/14 07:31:25;;;;;;;2.07;0.90;;;26.20;70.00;;;;;;5113948;28;20409;-76
2022/07/14 07:33:51;;;;;;;3.93;1.30;;;26.60;66.70;;;;;;5114504;28;20594;-76
2022/07/14 07:36:17;;;;;;;1.50;0.60;;;26.80;68.00;;;;;;5114172;28;20456;-76
2022/07/14 07:38:43;;;;;;;5.60;0.90;;;27.00;67.80;;;;;;5114175;28;20279;-76
2022/07/14 07:41:09;;;;;;;2.10;1.10;;;27.10;67.20;;;;;;5113592;28;20896;-76
2022/07/14 07:43:35;;;;;;;2.43;1.00;;;27.30;67.30;;;;;;5113896;28;20179;-76
2022/07/14 07:46:05;;;;;;;1.67;0.73;;;27.30;68.70;;;;;;5114208;28;20209;-76
2022/07/14 07:48:32;;;;;;;3.87;0.90;;;27.30;70.20;;;;;;5113789;28;20526;-78
2022/07/14 07:50:57;;;;;;;2.03;1.00;;;27.30;68.90;;;;;;5113841;28;20190;-79
2022/07/14 07:53:23;;;;;;;3.50;1.23;;;27.30;68.30;;;;;;5113833;28;20182;-79
2022/07/14 07:55:49;;;;;;;1.77;0.80;;;27.50;67.30;;;;;;5113687;28;20559;-78
2022/07/14 07:58:14;;;;;;;1.80;0.80;;;27.90;65.60;;;;;;5113895;28;20641;-78
2022/07/14 08:00:40;;;;;;;2.30;1.05;;;28.30;65.80;;;;;;5111005;28;20623;-78
2022/07/14 08:03:06;;;;;;;2.20;0.85;;;29.40;62.60;;;;;;5105222;28;20186;-79
2022/07/14 08:05:32;;;;;;;2.47;0.95;;;30.30;60.80;;;;;;5113793;28;20837;-79
2022/07/14 08:07:58;;;;;;;2.20;1.17;;;31.70;57.80;;;;;;5107062;28;20175;-79
2022/07/14 08:10:25;;;;;;;9.30;0.77;;;32.30;55.40;;;;;;5108929;28;20287;-79
2022/07/14 08:12:51;;;;;;;2.80;0.82;;;32.70;54.20;;;;;;5112817;28;20191;-79
2022/07/14 08:15:17;;;;;;;1.92;1.10;;;33.70;52.10;;;;;;5113010;28;20234;-79
2022/07/14 08:17:43;;;;;;;1.80;0.80;;;34.30;51.60;;;;;;5113408;28;20792;-79
2022/07/14 08:20:09;;;;;;;44.72;1.48;;;34.70;50.90;;;;;;5113760;28;20182;-79
2022/07/14 08:22:36;;;;;;;5.45;1.10;;;34.90;48.60;;;;;;5113068;28;20193;-79
2022/07/14 08:25:04;;;;;;;2.10;1.00;;;34.60;49.30;;;;;;5105331;28;20286;-79
2022/07/14 08:27:30;;;;;;;2.80;1.50;;;34.50;47.90;;;;;;5110825;28;20179;-79
2022/07/14 08:29:56;;;;;;;2.17;1.10;;;34.20;49.70;;;;;;5113024;28;20175;-79
2022/07/14 08:32:40;;;;;;;3.10;1.20;;;33.80;50.00;;;;;;5112717;28;20518;-79
2022/07/14 08:35:09;;;;;;;5.75;1.38;;;34.00;48.50;;;;;;5112855;28;20176;-79
2022/07/14 08:37:35;;;;;;;2.47;1.30;;;33.80;49.60;;;;;;5112974;28;20351;-79
2022/07/14 08:40:03;;;;;;;3.75;1.48;;;33.70;50.30;;;;;;5103145;28;20175;-79
2022/07/14 08:42:29;;;;;;;1.90;1.10;;;33.50;50.60;;;;;;5106630;28;20175;-79
2022/07/14 08:44:55;;;;;;;1.90;0.90;;;33.30;50.50;;;;;;5092668;28;20265;-79
2022/07/14 08:47:22;;;;;;;3.22;1.40;;;34.00;50.10;;;;;;5104446;28;20267;-79
2022/07/14 08:49:48;;;;;;;2.08;1.08;;;34.00;49.70;;;;;;5098293;28;20172;-79
2022/07/14 08:52:19;;;;;;;3.15;1.20;;;34.00;50.10;;;;;;5112765;28;20183;-79
2022/07/14 08:54:46;;;;;;;2.33;1.42;;;34.70;48.50;;;;;;5098458;28;20266;-79
2022/07/14 08:57:13;;;;;;;1.88;1.10;;;34.70;48.00;;;;;;5111811;28;20249;-79
2022/07/14 08:59:40;;;;;;;5.93;1.17;;;34.70;49.30;;;;;;5108484;28;20210;-79
2022/07/14 09:02:06;;;;;;;1.80;1.00;;;34.80;49.30;;;;;;5102040;28;20180;-80
2022/07/14 09:04:31;;;;;;;4.03;1.20;;;35.10;48.60;;;;;;5108969;28;20179;-79
2022/07/14 09:06:57;;;;;;;2.53;1.38;;;35.00;48.40;;;;;;5098748;28;20194;-79
2022/07/14 09:09:29;;;;;;;2.97;1.00;;;35.00;46.80;;;;;;5097992;28;20234;-79
2022/07/14 09:12:09;;;;;;;2.65;1.10;;;34.70;47.60;;;;;;5103380;28;20222;-79
2022/07/14 09:17:51;;;;;;;2.42;1.20;;;34.30;47.90;;;;;;5104020;28;20224;-79
2022/07/14 09:20:17;;;;;;;2.28;1.20;;;33.90;48.50;;;;;;5103285;28;20534;-79
2022/07/14 09:22:43;;;;;;;2.88;1.33;;;33.50;49.70;;;;;;5110047;28;20644;-79
2022/07/14 09:25:13;;;;;;;4.72;1.38;;;33.30;49.60;;;;;;5110775;28;20195;-79
2022/07/14 09:27:40;;;;;;;2.00;1.00;;;33.10;47.20;;;;;;5097137;28;20262;-79
2022/07/14 09:30:10;;;;;;;2.25;1.17;;;32.50;48.30;;;;;;5106730;28;20274;-79
2022/07/14 09:33:04;;;;;;;11.05;1.20;;;32.20;49.40;;;;;;5097511;28;20639;-79
2022/07/14 09:35:36;;;;;;;3.78;1.30;;;32.50;49.80;;;;;;5098806;28;20209;-79
2022/07/14 09:38:17;;;;;;;4.43;0.95;;;33.20;49.90;;;;;;5106362;28;20253;-79
2022/07/14 09:40:43;;;;;;;4.22;1.40;;;33.40;46.80;;;;;;5109026;28;20210;-79
2022/07/14 09:43:12;;;;;;;2.17;1.00;;;33.70;47.20;;;;;;5114367;28;20179;-80
2022/07/14 09:45:40;;;;;;;2.85;1.13;;;33.60;48.00;;;;;;5101291;28;20179;-79
2022/07/14 09:48:14;;;;;;;22.38;1.33;;;33.60;46.10;;;;;;5108776;28;20536;-79
2022/07/14 09:50:41;;;;;;;1.88;0.88;;;33.70;46.10;;;;;;5112874;28;20270;-79
2022/07/14 09:53:22;;;;;;;5.45;0.98;;;34.00;42.60;;;;;;5113534;28;20187;-79
2022/07/14 09:56:01;;;;;;;2.10;1.00;;;33.50;45.00;;;;;;5112483;28;20194;-79
2022/07/14 09:58:32;;;;;;;2.45;1.15;;;33.30;44.50;;;;;;5098614;28;20182;-79
2022/07/14 10:01:06;;;;;;;2.63;1.08;;;33.50;45.10;;;;;;5114946;28;20632;-79
2022/07/14 10:03:34;;;;;;;1.90;1.05;;;34.00;45.80;;;;;;5102319;28;20179;-80
2022/07/14 10:06:01;;;;;;;3.97;0.90;;;33.90;42.80;;;;;;5114549;28;20171;-79
2022/07/14 10:08:29;;;;;;;4.43;1.42;;;33.50;43.70;;;;;;5114145;28;20182;-79
2022/07/14 10:10:58;;;;;;;2.58;1.00;;;33.40;42.40;;;;;;5111601;28;20186;-79
2022/07/14 10:13:24;;;;;;;2.70;1.20;;;33.70;41.80;;;;;;5104485;28;20515;-79
2022/07/14 10:15:52;;;;;;;2.97;1.20;;;34.20;40.80;;;;;;5114364;28;20199;-79
2022/07/14 10:18:18;;;;;;;3.65;1.00;;;34.10;39.40;;;;;;5115638;28;20630;-79
2022/07/14 10:20:50;;;;;;;1.92;0.88;;;34.10;41.90;;;;;;5115107;28;20717;-79
2022/07/14 10:23:17;;;;;;;2.20;0.90;;;33.90;39.10;;;;;;5114786;28;20171;-79
2022/07/14 10:25:46;;;;;;;2.63;1.20;;;33.70;38.80;;;;;;5114962;28;20179;-79
2022/07/14 10:28:13;;;;;;;1.70;0.70;;;33.40;38.60;;;;;;5115111;28;20191;-78
2022/07/14 10:30:56;;;;;;;2.05;1.00;;;33.40;38.90;;;;;;5111306;27;20180;-79
2022/07/14 10:33:42;;;;;;;2.25;0.93;;;33.20;39.20;;;;;;5105918;28;20525;-78
2022/07/14 10:36:16;;;;;;;2.03;0.80;;;32.80;39.80;;;;;;5110751;28;20672;-79
2022/07/14 10:39:06;;;;;;;1.83;0.85;;;32.70;38.00;;;;;;5109230;28;20304;-79
2022/07/14 10:41:54;;;;;;;2.03;0.90;;;32.50;39.00;;;;;;5110891;28;20263;-79
2022/07/14 10:44:22;;;;;;;3.33;1.20;;;32.60;40.70;;;;;;5104984;28;20219;-78
2022/07/14 10:46:50;;;;;;;2.38;1.00;;;32.70;40.70;;;;;;5113597;28;20179;-78
2022/07/14 10:49:17;;;;;;;2.00;0.93;;;32.70;40.50;;;;;;5114090;28;20180;-78
2022/07/14 10:51:45;;;;;;;2.08;0.85;;;32.70;40.10;;;;;;5113478;28;20175;-78
2022/07/14 10:54:16;;;;;;;2.60;0.95;;;32.70;40.70;;;;;;5113860;28;20224;-79
2022/07/14 10:56:44;;;;;;;3.35;1.17;;;32.80;40.20;;;;;;5113958;27;20203;-78
2022/07/14 10:59:30;;;;;;;1.80;0.77;;;32.80;41.30;;;;;;5113430;28;20178;-78
2022/07/14 11:02:14;;;;;;;3.47;0.93;;;32.80;39.30;;;;;;5113636;28;20222;-78
2022/07/14 11:04:58;;;;;;;2.35;0.90;;;33.00;39.50;;;;;;5114322;28;20192;-79
2022/07/14 11:07:36;;;;;;;2.28;1.00;;;33.10;40.40;;;;;;5114520;28;20513;-78
2022/07/14 11:10:04;;;;;;;2.70;1.00;;;33.00;39.50;;;;;;5109614;27;20274;-78
2022/07/14 11:12:30;;;;;;;1.80;0.80;;;32.90;39.80;;;;;;5104577;28;20186;-79
2022/07/14 11:14:57;;;;;;;1.73;0.80;;;32.90;39.40;;;;;;5113312;28;20203;-78
2022/07/14 11:17:37;;;;;;;2.22;0.93;;;33.00;39.30;;;;;;5113642;28;20298;-78
2022/07/14 11:20:04;;;;;;;7.05;0.90;;;33.10;39.90;;;;;;5106220;28;20170;-78
2022/07/14 11:22:30;;;;;;;2.00;0.90;;;33.10;40.10;;;;;;5113857;27;20175;-79
2022/07/14 11:24:58;;;;;;;1.80;0.88;;;33.00;39.40;;;;;;5113253;28;20604;-79
2022/07/14 11:27:43;;;;;;;3.95;1.00;;;32.80;39.10;;;;;;5113726;28;20262;-78
2022/07/14 11:30:35;;;;;;;2.10;1.00;;;32.60;39.70;;;;;;5113397;28;20179;-78
2022/07/14 11:33:03;;;;;;;1.85;1.02;;;32.70;42.30;;;;;;5108226;28;21152;-79
2022/07/14 11:38:28;;;;;;;2.00;0.98;;;33.10;40.60;;;;;;5114398;28;20206;-78
2022/07/14 11:40:54;;;;;;;2.58;1.30;;;33.20;38.80;;;;;;5114701;28;20178;-78
2022/07/14 11:43:29;;;;;;;2.70;1.08;;;33.20;39.00;;;;;;5114347;28;20171;-78
2022/07/14 11:46:07;;;;;;;1.60;0.70;;;33.40;40.20;;;;;;5114410;28;20207;-78
2022/07/14 11:48:39;;;;;;;2.55;1.00;;;33.50;40.20;;;;;;5114478;28;20175;-78
2022/07/14 11:51:07;;;;;;;2.22;1.13;;;33.80;38.30;;;;;;5114026;27;20183;-78
2022/07/14 11:53:35;;;;;;;2.53;1.08;;;33.90;39.50;;;;;;5114481;28;20207;-78
2022/07/14 11:56:02;;;;;;;7.38;1.00;;;33.80;38.80;;;;;;5111476;28;20269;-78
2022/07/14 11:58:29;;;;;;;2.53;1.20;;;33.70;38.10;;;;;;5114245;28;20228;-79
2022/07/14 12:00:57;;;;;;;2.00;1.00;;;33.50;39.80;;;;;;5113585;28;20577;-78
2022/07/14 12:03:23;;;;;;;2.45;0.95;;;33.40;39.20;;;;;;5113524;28;20267;-78
2022/07/14 12:05:53;;;;;;;2.13;1.08;;;33.40;40.10;;;;;;5114106;28;20214;-78
2022/07/14 12:08:33;;;;;;;14.48;0.93;;;33.40;39.90;;;;;;5114134;28;20187;-78
2022/07/14 12:11:08;;;;;;;7.53;1.08;;;33.60;39.50;;;;;;5105989;28;20171;-78
2022/07/14 12:13:53;;;;;;;1.85;0.65;;;33.70;37.90;;;;;;5113362;28;20175;-78
2022/07/14 12:16:22;;;;;;;2.95;1.23;;;33.60;37.50;;;;;;5101866;28;20670;-78
2022/07/14 12:18:51;;;;;;;2.10;1.10;;;33.60;38.10;;;;;;5113636;28;20537;-78
2022/07/14 12:21:34;;;;;;;9.48;1.88;;;33.60;38.90;;;;;;5113246;28;20224;-78
2022/07/14 12:24:00;;;;;;;8.18;1.05;;;33.70;39.70;;;;;;5102891;28;20716;-79
2022/07/14 12:26:27;;;;;;;2.05;1.20;;;33.70;41.00;;;;;;5107976;28;20645;-78
2022/07/14 12:28:58;;;;;;;2.15;0.90;;;33.70;40.10;;;;;;5111528;28;20216;-78
2022/07/14 12:31:24;;;;;;;9.85;0.90;;;33.70;38.90;;;;;;5113663;28;20201;-79
2022/07/14 12:33:52;;;;;;;1.92;0.88;;;33.70;39.00;;;;;;5105839;28;20579;-79
2022/07/14 12:36:20;;;;;;;2.47;1.13;;;33.80;40.20;;;;;;5098711;28;20613;-79
2022/07/14 12:38:46;;;;;;;2.88;1.00;;;34.00;38.20;;;;;;5101192;28;20199;-79
2022/07/14 12:41:19;;;;;;;1.80;0.77;;;34.00;38.20;;;;;;5112572;28;20595;-79
2022/07/14 12:43:45;;;;;;;4.72;1.40;;;34.20;38.00;;;;;;5110932;28;20220;-79
2022/07/14 12:46:15;;;;;;;4.55;1.10;;;34.10;39.30;;;;;;5112404;28;20330;-79
2022/07/14 12:48:50;;;;;;;2.22;0.90;;;33.80;38.30;;;;;;5112456;28;20227;-79
2022/07/14 12:51:19;;;;;;;2.50;1.15;;;33.60;39.00;;;;;;5104935;28;20213;-79
2022/07/14 12:54:26;;;;;;;3.35;1.27;;;33.60;40.20;;;;;;5112571;28;20183;-79
2022/07/14 12:56:53;;;;;;;4.35;1.10;;;33.50;39.40;;;;;;5095669;28;20226;-79
2022/07/14 12:59:20;;;;;;;1.75;0.77;;;33.30;39.20;;;;;;5113113;28;20181;-79
2022/07/14 13:01:55;;;;;;;2.30;1.15;;;33.40;38.00;;;;;;5112721;28;20198;-79
2022/07/14 13:04:43;;;;;;;4.07;1.02;;;33.40;38.60;;;;;;5113330;28;20179;-80